Kurgan, Russia
Current Conditions -  °F | °C
As of 8:30 PM on Friday 19 Dec 2014 (Local Time) from USTR Reporting Station
Clear Clear  
Wind Chill: 11°   Ceiling: Unl
Heat Index: 23°   Visibility: 6mi
Dew Point: 16°   Wind: 13mph
Humidity: 74%   Direction: 200°SSW
Pressure: 30"   Gusts: 20mph
Location:  55.45°N, 65.33°E
Report Text: USTR 191530Z 20006G09MPS CAVOK M05/M09 Q1016 NOSIG RMKQFE753/1004 21450160 30450350
Loading
Personal Weather Stations






























Interactive Weather Map New forecast layout! Learn more

10-Day Weather Forecast

Advertisements
Track Severe Weather on mobile